createdAt,value
2022-08-02T00:00:13.017Z,1.83
2022-08-02T00:02:39.722Z,1.50
2022-08-02T00:05:07.050Z,1.58
2022-08-02T00:07:37.707Z,1.77
2022-08-02T00:10:08.868Z,1.50
2022-08-02T00:12:35.601Z,1.77
2022-08-02T00:15:02.311Z,1.45
2022-08-02T00:17:29.079Z,1.50
2022-08-02T00:19:55.710Z,1.50
2022-08-02T00:22:22.362Z,1.60
2022-08-02T00:24:49.139Z,1.60
2022-08-02T00:27:15.730Z,1.85
2022-08-02T00:29:42.641Z,1.90
2022-08-02T00:32:19.515Z,1.83
2022-08-02T00:34:46.171Z,1.70
2022-08-02T00:37:12.803Z,1.55
2022-08-02T00:39:39.578Z,1.63
2022-08-02T00:42:06.377Z,1.48
2022-08-02T00:44:33.023Z,1.77
2022-08-02T00:47:00.137Z,1.60
2022-08-02T00:49:27.198Z,1.92
2022-08-02T00:51:53.847Z,1.88
2022-08-02T00:54:20.955Z,1.80
2022-08-02T00:56:50.147Z,1.40
2022-08-02T00:59:18.434Z,1.90
2022-08-02T01:01:57.676Z,1.77
2022-08-02T01:04:30.266Z,1.80
2022-08-02T01:07:12.333Z,1.70
2022-08-02T01:09:40.285Z,1.70
2022-08-02T01:12:07.548Z,1.80
2022-08-02T01:14:34.246Z,1.70
2022-08-02T01:17:19.850Z,1.60
2022-08-02T01:19:52.685Z,2.00
2022-08-02T01:22:59.572Z,1.70
2022-08-02T01:25:38.740Z,1.85
2022-08-02T01:28:30.087Z,2.00
2022-08-02T01:31:16.962Z,1.70
2022-08-02T01:33:57.830Z,1.90
2022-08-02T01:36:27.744Z,1.80
2022-08-02T01:38:54.943Z,2.20
2022-08-02T01:41:23.859Z,2.03
2022-08-02T01:43:53.941Z,1.80
2022-08-02T01:46:21.215Z,1.80
2022-08-02T01:48:48.659Z,1.80
2022-08-02T01:51:18.029Z,2.00
2022-08-02T01:53:48.546Z,1.92
2022-08-02T01:56:16.452Z,1.77
2022-08-02T01:58:44.095Z,2.03
2022-08-02T02:01:15.180Z,2.10
2022-08-02T02:03:46.212Z,2.00
2022-08-02T02:06:12.850Z,2.03
2022-08-02T02:08:41.825Z,2.00
2022-08-02T02:12:05.886Z,2.15
2022-08-02T02:13:58.675Z,2.00
2022-08-02T02:16:27.386Z,1.98
2022-08-02T02:18:54.614Z,2.22
2022-08-02T02:21:21.283Z,1.85
2022-08-02T02:23:47.917Z,1.90
2022-08-02T02:26:27.361Z,2.00
2022-08-02T02:29:02.535Z,2.28
2022-08-02T02:31:34.628Z,2.30
2022-08-02T02:34:03.782Z,2.00
2022-08-02T02:36:31.034Z,1.98
2022-08-02T02:39:00.114Z,1.97
2022-08-02T02:41:27.120Z,1.80
2022-08-02T02:43:58.893Z,1.92
2022-08-02T02:46:27.247Z,1.80
2022-08-02T02:48:54.682Z,2.10
2022-08-02T02:51:22.364Z,2.10
2022-08-02T02:54:30.740Z,1.70
2022-08-02T02:56:38.493Z,1.88
2022-08-02T02:59:05.311Z,1.98
2022-08-02T03:01:55.636Z,2.05
2022-08-02T03:04:18.966Z,1.80
2022-08-02T03:06:46.531Z,2.17
2022-08-02T03:09:13.393Z,2.13
2022-08-02T03:11:40.965Z,2.33
2022-08-02T03:14:11.695Z,2.22
2022-08-02T03:17:04.535Z,2.30
2022-08-02T03:19:33.311Z,2.20
2022-08-02T03:22:00.124Z,2.42
2022-08-02T03:24:27.940Z,1.90
2022-08-02T03:26:55.661Z,2.10
2022-08-02T03:29:22.313Z,2.20
2022-08-02T03:31:49.031Z,2.30
2022-08-02T03:34:15.725Z,2.10
2022-08-02T03:36:43.114Z,1.95
2022-08-02T03:39:11.031Z,2.25
2022-08-02T03:41:38.282Z,2.00
2022-08-02T03:44:06.705Z,2.20
2022-08-02T03:46:33.497Z,2.35
2022-08-02T03:49:00.725Z,2.10
2022-08-02T03:51:27.656Z,2.40
2022-08-02T03:53:54.685Z,2.00
2022-08-02T03:56:23.467Z,2.25
2022-08-02T03:58:50.277Z,2.20
2022-08-02T04:01:17.042Z,2.22
2022-08-02T04:03:43.977Z,2.00
2022-08-02T04:06:10.728Z,2.20
2022-08-02T04:08:38.642Z,2.33
2022-08-02T04:11:24.939Z,2.17
2022-08-02T04:13:51.923Z,2.20
2022-08-02T04:16:24.245Z,2.40
2022-08-02T04:19:15.017Z,2.23
2022-08-02T04:21:51.770Z,2.13
2022-08-02T04:24:33.495Z,2.47
2022-08-02T04:27:19.398Z,2.50
2022-08-02T04:29:49.089Z,2.03
2022-08-02T04:32:17.078Z,2.10
2022-08-02T04:35:18.170Z,2.30
2022-08-02T04:37:34.873Z,2.17
2022-08-02T04:40:01.538Z,2.50
2022-08-02T04:42:28.200Z,2.70
2022-08-02T04:44:54.870Z,2.40
2022-08-02T04:47:54.382Z,2.60
2022-08-02T04:50:08.887Z,2.28
2022-08-02T04:52:35.551Z,2.75
2022-08-02T04:55:02.184Z,2.40
2022-08-02T04:57:52.695Z,2.40
2022-08-02T05:00:20.477Z,2.33
2022-08-02T05:02:47.597Z,2.42
2022-08-02T05:05:14.550Z,2.28
2022-08-02T05:07:41.247Z,2.40
2022-08-02T05:10:08.249Z,2.10
2022-08-02T05:12:34.917Z,2.13
2022-08-02T05:15:01.620Z,2.50
2022-08-02T05:17:28.307Z,2.53
2022-08-02T05:19:54.963Z,2.70
2022-08-02T05:22:21.550Z,2.47
2022-08-02T05:24:48.180Z,2.47
2022-08-02T05:27:16.895Z,2.60
2022-08-02T05:29:53.661Z,2.30
2022-08-02T05:32:20.835Z,2.60
2022-08-02T05:34:50.423Z,2.07
2022-08-02T05:37:17.102Z,2.30
2022-08-02T05:39:55.385Z,2.78
2022-08-02T05:42:22.920Z,2.50
2022-08-02T05:44:49.571Z,2.65
2022-08-02T05:47:16.384Z,2.40
2022-08-02T05:49:43.126Z,2.50
2022-08-02T05:52:16.239Z,2.63
2022-08-02T05:55:09.948Z,2.60
2022-08-02T05:57:53.724Z,2.38
2022-08-02T06:00:21.269Z,2.50
2022-08-02T06:03:16.737Z,2.30
2022-08-02T06:05:51.493Z,2.38
2022-08-02T06:08:20.709Z,2.50
2022-08-02T06:10:48.621Z,2.80
2022-08-02T06:13:19.421Z,2.53
2022-08-02T06:15:53.328Z,2.40
2022-08-02T06:18:28.391Z,2.63
2022-08-02T06:21:03.811Z,2.38
2022-08-02T06:23:57.518Z,2.58
2022-08-02T06:26:26.880Z,2.37
2022-08-02T06:28:55.842Z,2.58
2022-08-02T06:31:22.619Z,2.67
2022-08-02T06:33:49.365Z,2.50
2022-08-02T06:36:27.541Z,2.63
2022-08-02T06:39:05.150Z,2.57
2022-08-02T06:41:42.347Z,2.47
2022-08-02T06:44:43.048Z,2.40
2022-08-02T06:47:09.881Z,2.40
2022-08-02T06:49:52.510Z,2.47
2022-08-02T06:52:29.602Z,2.10
2022-08-02T06:55:01.075Z,2.60
2022-08-02T06:57:28.640Z,2.60
2022-08-02T06:59:55.853Z,2.00
2022-08-02T07:02:22.854Z,2.10
2022-08-02T07:04:49.731Z,2.23
2022-08-02T07:07:16.381Z,2.03
2022-08-02T07:09:56.363Z,2.40
2022-08-02T07:12:27.747Z,2.50
2022-08-02T07:14:54.361Z,2.40
2022-08-02T07:17:20.971Z,2.10
2022-08-02T07:19:47.580Z,2.28
2022-08-02T07:22:14.314Z,2.40
2022-08-02T07:24:41.642Z,2.20
2022-08-02T07:27:11.775Z,2.28
2022-08-02T07:29:46.136Z,2.33
2022-08-02T07:32:18.039Z,1.95
2022-08-02T07:34:50.615Z,2.45
2022-08-02T07:37:36.137Z,1.92
2022-08-02T07:40:11.830Z,2.05
2022-08-02T07:42:40.519Z,2.00
2022-08-02T07:45:08.033Z,2.05
2022-08-02T07:47:38.220Z,2.13
2022-08-02T07:50:06.023Z,2.10
2022-08-02T07:52:32.642Z,2.17
2022-08-02T07:54:59.313Z,2.10
2022-08-02T07:57:25.920Z,2.00
2022-08-02T07:59:52.581Z,2.20
2022-08-02T08:02:19.245Z,2.25
2022-08-02T08:04:45.842Z,2.20
2022-08-02T08:07:12.449Z,2.23
2022-08-02T08:09:42.190Z,2.25
2022-08-02T08:12:10.216Z,2.10
2022-08-02T08:14:38.281Z,2.00
2022-08-02T08:17:06.535Z,1.95
2022-08-02T08:19:51.690Z,2.03
2022-08-02T08:22:19.941Z,2.58
2022-08-02T08:24:48.241Z,2.20
2022-08-02T08:27:15.864Z,2.08
2022-08-02T08:29:43.468Z,2.10
2022-08-02T08:32:17.241Z,2.00
2022-08-02T08:34:48.125Z,2.20
2022-08-02T08:37:17.807Z,2.15
2022-08-02T08:39:58.354Z,2.00
2022-08-02T08:42:30.033Z,2.35
2022-08-02T08:44:57.715Z,2.10
2022-08-02T08:47:34.361Z,2.00
2022-08-02T08:50:18.911Z,2.30
2022-08-02T08:53:04.228Z,2.53
2022-08-02T08:55:31.947Z,2.30
2022-08-02T08:58:00.314Z,2.20
2022-08-02T09:00:27.974Z,2.10
2022-08-02T09:02:54.584Z,2.30
2022-08-02T09:05:21.262Z,2.60
2022-08-02T09:07:51.731Z,2.40
2022-08-02T09:10:47.399Z,2.37
2022-08-02T09:13:31.235Z,2.05
2022-08-02T09:16:11.372Z,2.65
2022-08-02T09:18:42.102Z,2.45
2022-08-02T09:21:09.565Z,2.15
2022-08-02T09:23:38.249Z,2.00
2022-08-02T09:26:09.612Z,2.42
2022-08-02T09:28:38.544Z,2.25
2022-08-02T09:31:16.450Z,2.20
2022-08-02T09:33:45.246Z,2.10
2022-08-02T09:36:13.785Z,2.33
2022-08-02T09:38:41.782Z,2.30
2022-08-02T09:41:20.853Z,2.70
2022-08-02T09:43:52.419Z,2.30
2022-08-02T09:46:37.527Z,2.40
2022-08-02T09:49:10.511Z,2.40
2022-08-02T09:51:40.423Z,2.20
2022-08-02T09:54:09.866Z,2.70
2022-08-02T09:56:48.344Z,2.45
2022-08-02T09:59:16.208Z,2.40
2022-08-02T10:01:50.658Z,2.20
2022-08-02T10:04:27.241Z,2.35
2022-08-02T10:06:54.429Z,2.60
2022-08-02T10:09:22.070Z,2.33
2022-08-02T10:11:49.329Z,3.05
2022-08-02T10:14:16.397Z,2.50
2022-08-02T10:16:44.229Z,2.53
2022-08-02T10:19:11.362Z,3.22
2022-08-02T10:22:01.037Z,2.40
2022-08-02T10:24:29.419Z,2.30
2022-08-02T10:26:56.433Z,2.73
2022-08-02T10:29:53.394Z,2.38
2022-08-02T10:32:30.815Z,2.55
2022-08-02T10:35:18.215Z,2.50
2022-08-02T10:37:46.424Z,2.40
2022-08-02T10:40:26.991Z,2.87
2022-08-02T10:42:55.605Z,2.97
2022-08-02T10:45:22.975Z,2.75
2022-08-02T10:48:12.210Z,2.67
2022-08-02T10:50:48.044Z,2.35
2022-08-02T10:53:32.627Z,2.57
2022-08-02T10:56:01.776Z,2.20
2022-08-02T10:58:32.290Z,2.50
2022-08-02T11:01:04.154Z,2.75
2022-08-02T11:03:41.448Z,2.30
2022-08-02T11:06:25.605Z,2.30
2022-08-02T11:09:41.337Z,2.20
2022-08-02T11:12:10.914Z,2.83
2022-08-02T11:14:41.027Z,2.83
2022-08-02T11:17:13.645Z,2.75
2022-08-02T11:20:08.642Z,3.07
2022-08-02T11:22:35.809Z,2.40
2022-08-02T11:26:01.052Z,2.40
2022-08-02T11:28:23.035Z,2.28
2022-08-02T11:30:59.537Z,2.55
2022-08-02T11:33:36.754Z,2.50
2022-08-02T11:36:07.316Z,2.60
2022-08-02T11:38:34.182Z,3.05
2022-08-02T11:41:06.230Z,2.70
2022-08-02T11:43:37.222Z,2.85
2022-08-02T11:46:04.597Z,2.60
2022-08-02T11:48:37.669Z,2.50
2022-08-02T11:51:14.962Z,2.70
2022-08-02T11:53:46.401Z,3.00
2022-08-02T11:56:13.847Z,2.75
2022-08-02T11:59:20.844Z,2.60
2022-08-02T12:01:47.585Z,2.60
2022-08-02T12:04:22.531Z,2.47
2022-08-02T12:06:58.102Z,2.67
2022-08-02T12:09:26.853Z,2.80
2022-08-02T12:11:54.195Z,2.90
2022-08-02T12:14:23.582Z,2.47
2022-08-02T12:17:08.884Z,2.70
2022-08-02T12:19:36.270Z,2.75
2022-08-02T12:22:24.437Z,2.67
2022-08-02T12:24:56.508Z,2.80
2022-08-02T12:27:29.688Z,2.53
2022-08-02T12:30:02.635Z,2.63
2022-08-02T12:32:29.438Z,2.60
2022-08-02T12:35:25.990Z,2.83
2022-08-02T12:37:53.611Z,2.60
2022-08-02T12:40:27.125Z,2.70
2022-08-02T12:42:58.917Z,3.25
2022-08-02T12:45:26.984Z,3.22
2022-08-02T12:48:05.959Z,3.33
2022-08-02T12:50:37.196Z,2.70
2022-08-02T12:53:15.688Z,2.53
2022-08-02T12:56:01.845Z,2.92
2022-08-02T12:58:30.898Z,2.50
2022-08-02T13:01:00.839Z,2.78
2022-08-02T13:04:09.000Z,2.60
2022-08-02T13:06:42.010Z,2.60
2022-08-02T13:09:02.459Z,2.80
2022-08-02T13:11:29.353Z,2.67
2022-08-02T13:13:56.269Z,2.90
2022-08-02T13:16:30.771Z,2.40
2022-08-02T13:18:58.376Z,2.20
2022-08-02T13:21:41.072Z,2.63
2022-08-02T13:24:32.779Z,2.45
2022-08-02T13:27:04.673Z,2.75
2022-08-02T13:29:38.332Z,2.83
2022-08-02T13:32:05.357Z,2.78
2022-08-02T13:34:32.001Z,3.00
2022-08-02T13:36:58.676Z,2.30
2022-08-02T13:39:25.419Z,2.55
2022-08-02T13:41:52.039Z,2.33
2022-08-02T13:44:18.682Z,2.58
2022-08-02T13:46:46.099Z,2.38
2022-08-02T13:49:18.772Z,2.50
2022-08-02T13:51:47.446Z,2.67
2022-08-02T13:54:14.769Z,2.67
2022-08-02T13:56:41.519Z,3.10
2022-08-02T13:59:53.946Z,2.70
2022-08-02T14:01:56.580Z,2.97
2022-08-02T14:04:23.437Z,2.67
2022-08-02T14:06:50.228Z,2.57
2022-08-02T14:09:17.391Z,2.38
2022-08-02T14:11:45.247Z,2.67
2022-08-02T14:14:16.576Z,2.45
2022-08-02T14:16:45.266Z,2.50
2022-08-02T14:19:16.350Z,2.30
2022-08-02T14:21:48.042Z,2.60
2022-08-02T14:24:19.880Z,2.42
2022-08-02T14:26:47.352Z,2.65
2022-08-02T14:29:14.850Z,2.67
2022-08-02T14:31:44.347Z,2.90
2022-08-02T14:34:12.789Z,2.60
2022-08-02T14:36:39.496Z,2.83
2022-08-02T14:39:06.359Z,2.60
2022-08-02T14:41:58.437Z,2.33
2022-08-02T14:44:20.698Z,2.57
2022-08-02T14:46:47.466Z,2.30
2022-08-02T14:49:24.445Z,2.60
2022-08-02T14:51:56.347Z,2.10
2022-08-02T14:54:30.150Z,2.42
2022-08-02T14:57:02.727Z,2.37
2022-08-02T14:59:29.994Z,2.33
2022-08-02T15:01:57.253Z,2.25
2022-08-02T15:04:23.997Z,2.05
2022-08-02T15:06:50.960Z,2.38
2022-08-02T15:09:17.591Z,2.53
2022-08-02T15:11:47.168Z,2.10
2022-08-02T15:14:20.538Z,2.63
2022-08-02T15:16:58.121Z,2.20
2022-08-02T15:19:58.999Z,2.22
2022-08-02T15:22:16.916Z,2.43
2022-08-02T15:24:46.273Z,1.90
2022-08-02T15:27:15.945Z,2.40
2022-08-02T15:29:43.557Z,2.30
2022-08-02T15:32:10.857Z,2.30
2022-08-02T15:34:38.287Z,2.20
2022-08-02T15:37:05.044Z,2.60
2022-08-02T15:39:31.637Z,2.53
2022-08-02T15:41:58.303Z,3.13
2022-08-02T15:44:25.125Z,2.42
2022-08-02T15:46:53.334Z,2.17
2022-08-02T15:49:20.972Z,1.90
2022-08-02T15:51:47.741Z,2.00
2022-08-02T15:54:14.369Z,2.38
2022-08-02T15:56:41.005Z,2.10
2022-08-02T15:59:07.614Z,2.07
2022-08-02T16:01:37.964Z,2.30
2022-08-02T16:04:06.602Z,1.90
2022-08-02T16:06:34.818Z,1.90
2022-08-02T16:09:01.957Z,2.17
2022-08-02T16:11:28.695Z,2.07
2022-08-02T16:13:55.527Z,2.10
2022-08-02T16:16:34.034Z,2.15
2022-08-02T16:19:47.850Z,1.98
2022-08-02T16:21:48.737Z,1.83
2022-08-02T16:24:15.346Z,1.80
2022-08-02T16:26:42.343Z,2.10
2022-08-02T16:29:09.309Z,1.92
2022-08-02T16:31:41.648Z,1.80
2022-08-02T16:34:09.000Z,1.80
2022-08-02T16:36:35.600Z,2.00
2022-08-02T16:39:02.276Z,2.13
2022-08-02T16:41:51.925Z,2.10
2022-08-02T16:44:15.710Z,1.80
2022-08-02T16:46:45.175Z,2.30
2022-08-02T16:50:03.998Z,1.70
2022-08-02T16:51:59.111Z,1.85
2022-08-02T16:54:25.724Z,2.10
2022-08-02T16:56:53.244Z,1.90
2022-08-02T16:59:19.854Z,2.35
2022-08-02T17:02:03.127Z,2.27
2022-08-02T17:04:38.718Z,1.80
2022-08-02T17:07:11.225Z,1.90
2022-08-02T17:10:02.135Z,1.90
2022-08-02T17:12:29.441Z,1.92
2022-08-02T17:14:56.099Z,2.23
2022-08-02T17:17:33.789Z,1.70
2022-08-02T17:20:00.652Z,1.90
2022-08-02T17:22:27.298Z,2.00
2022-08-02T17:24:53.950Z,2.00
2022-08-02T17:27:20.589Z,1.70
2022-08-02T17:29:47.207Z,1.80
2022-08-02T17:32:15.520Z,1.90
2022-08-02T17:34:49.110Z,2.20
2022-08-02T17:37:26.421Z,1.80
2022-08-02T17:39:53.148Z,2.30
2022-08-02T17:42:23.270Z,2.05
2022-08-02T17:44:52.452Z,2.20
2022-08-02T17:47:19.277Z,1.90
2022-08-02T17:49:48.358Z,2.22
2022-08-02T17:52:51.867Z,2.00
2022-08-02T17:55:04.213Z,2.15
2022-08-02T17:57:57.821Z,1.90
2022-08-02T18:00:18.094Z,2.10
2022-08-02T18:02:52.989Z,2.20
2022-08-02T18:05:22.508Z,1.80
2022-08-02T18:07:53.022Z,1.70
2022-08-02T18:10:23.450Z,1.90
2022-08-02T18:12:53.414Z,1.83
2022-08-02T18:15:23.172Z,2.30
2022-08-02T18:17:50.620Z,2.00
2022-08-02T18:20:21.544Z,1.92
2022-08-02T18:22:48.240Z,2.20
2022-08-02T18:25:36.802Z,2.15
2022-08-02T18:28:09.106Z,2.25
2022-08-02T18:30:35.698Z,2.03
2022-08-02T18:33:54.329Z,2.10
2022-08-02T18:35:49.738Z,2.40
2022-08-02T18:38:17.622Z,1.83
2022-08-02T18:40:51.063Z,2.25
2022-08-02T18:43:18.419Z,2.10
2022-08-02T18:46:07.097Z,1.92
2022-08-02T18:48:31.620Z,2.10
2022-08-02T18:50:58.278Z,2.28
2022-08-02T18:56:20.405Z,2.00
2022-08-02T18:58:52.771Z,2.25
2022-08-02T19:01:32.723Z,2.28
2022-08-02T19:04:02.641Z,2.50
2022-08-02T19:06:29.762Z,2.42
2022-08-02T19:09:05.197Z,2.60
2022-08-02T19:11:38.489Z,2.30
2022-08-02T19:14:07.906Z,2.42
2022-08-02T19:16:37.427Z,2.72
2022-08-02T19:19:07.295Z,2.53
2022-08-02T19:22:18.266Z,2.40
2022-08-02T19:24:20.722Z,2.25
2022-08-02T19:26:51.091Z,2.80
2022-08-02T19:29:42.049Z,2.50
2022-08-02T19:32:42.694Z,2.78
2022-08-02T19:34:53.224Z,2.47
2022-08-02T19:37:19.853Z,2.60
2022-08-02T19:39:46.471Z,2.63
2022-08-02T19:42:14.895Z,2.40
2022-08-02T19:44:44.969Z,2.60
2022-08-02T19:47:12.187Z,2.30
2022-08-02T19:49:40.079Z,2.65
2022-08-02T19:52:20.582Z,2.30
2022-08-02T19:54:55.829Z,2.60
2022-08-02T19:57:24.957Z,2.65
2022-08-02T19:59:52.750Z,2.40
2022-08-02T20:02:21.057Z,2.63
2022-08-02T20:04:50.213Z,2.58
2022-08-02T20:07:54.783Z,2.60
2022-08-02T20:10:10.762Z,2.67
2022-08-02T20:12:38.981Z,2.40
2022-08-02T20:15:07.949Z,2.50
2022-08-02T20:17:47.739Z,2.40
2022-08-02T20:20:16.074Z,2.70
2022-08-02T20:23:01.477Z,2.95
2022-08-02T20:25:48.661Z,2.70
2022-08-02T20:28:15.350Z,2.40
2022-08-02T20:30:42.048Z,2.70
2022-08-02T20:33:21.341Z,2.25
2022-08-02T20:35:49.293Z,2.90
2022-08-02T20:38:16.417Z,2.60
2022-08-02T20:40:43.463Z,2.55
2022-08-02T20:43:10.552Z,2.60
2022-08-02T20:45:37.158Z,2.40
2022-08-02T20:48:04.012Z,2.78
2022-08-02T20:50:49.289Z,2.30
2022-08-02T20:53:23.687Z,2.70
2022-08-02T20:55:53.747Z,2.65
2022-08-02T20:58:20.435Z,2.60
2022-08-02T21:00:54.031Z,2.60
2022-08-02T21:03:20.725Z,2.93
2022-08-02T21:05:54.918Z,2.63
2022-08-02T21:08:23.465Z,2.80
2022-08-02T21:10:51.979Z,3.05
2022-08-02T21:13:25.923Z,2.85
2022-08-02T21:18:41.311Z,2.40
2022-08-02T21:21:09.403Z,2.67
2022-08-02T21:23:37.467Z,2.40
2022-08-02T21:28:53.089Z,2.53
2022-08-02T21:31:19.694Z,2.40
2022-08-02T21:33:56.826Z,2.88
2022-08-02T21:36:30.367Z,2.72
2022-08-02T21:38:59.967Z,2.70
2022-08-02T21:41:33.709Z,2.77
2022-08-02T21:44:07.182Z,2.72
2022-08-02T21:46:33.781Z,3.00
2022-08-02T21:49:01.986Z,2.70
2022-08-02T21:51:29.110Z,2.80
2022-08-02T21:56:48.712Z,2.63
2022-08-02T21:59:17.296Z,2.80
2022-08-02T22:01:52.924Z,2.67
2022-08-02T22:04:20.302Z,3.00
2022-08-02T22:06:47.108Z,2.77
2022-08-02T22:09:17.706Z,3.13
2022-08-02T22:12:04.014Z,2.83
2022-08-02T22:14:30.603Z,2.83
2022-08-02T22:16:57.405Z,2.72
2022-08-02T22:19:23.994Z,2.57
2022-08-02T22:21:55.256Z,2.65
2022-08-02T22:24:30.190Z,2.70
2022-08-02T22:26:57.681Z,2.53
2022-08-02T22:29:24.443Z,2.97
2022-08-02T22:31:52.118Z,2.90
2022-08-02T22:34:36.690Z,2.83
2022-08-02T22:37:05.964Z,3.00
2022-08-02T22:39:34.576Z,2.65
2022-08-02T22:42:15.540Z,3.13
2022-08-02T22:44:44.225Z,2.70
2022-08-02T22:47:14.535Z,2.75
2022-08-02T22:49:52.876Z,3.17
2022-08-02T22:52:21.573Z,2.55
2022-08-02T22:54:48.400Z,3.08
2022-08-02T22:57:14.998Z,2.77
2022-08-02T22:58:45.839Z,2.22
2022-08-02T22:59:02.195Z,2.57
2022-08-02T22:59:02.659Z,2.50
2022-08-02T22:59:11.720Z,2.60
2022-08-02T22:59:41.903Z,2.85
2022-08-02T23:02:10.235Z,2.60
2022-08-02T23:04:37.649Z,2.60
2022-08-02T23:07:04.783Z,2.63
2022-08-02T23:09:31.524Z,2.80
2022-08-02T23:11:58.190Z,3.13
2022-08-02T23:14:24.820Z,2.72
2022-08-02T23:17:10.314Z,2.70
2022-08-02T23:19:52.291Z,2.60
2022-08-02T23:22:30.133Z,2.70
2022-08-02T23:24:59.928Z,2.72
2022-08-02T23:27:26.668Z,3.10
2022-08-02T23:29:53.284Z,3.10
2022-08-02T23:32:22.970Z,2.83
2022-08-02T23:34:53.072Z,2.97
2022-08-02T23:37:19.754Z,2.80
2022-08-02T23:39:46.517Z,2.97
2022-08-02T23:42:13.235Z,2.95
2022-08-02T23:44:40.089Z,2.70
2022-08-02T23:47:06.747Z,2.77
2022-08-02T23:49:33.413Z,2.60
2022-08-02T23:52:01.928Z,2.80
2022-08-02T23:54:29.241Z,3.08
2022-08-02T23:56:56.312Z,2.88
2022-08-02T23:59:23.159Z,2.70
